Time;durP1;ratioP1;P1;durP2;ratioP2;P2;SDS_P1;SDS_P2;PMS_P1;PMS_P2;Temp;Humidity;BMP_temperature;BMP_pressure;BME280_temperature;BME280_humidity;BME280_pressure;Samples;Min_cycle;Max_cycle;Signal;HPM_P1;HPM_P2
2021/10/31 00:01:29;;;;;;;18.57;13.27;;;;;;;9.50;73.57;100260.91;5001839;28;20228;-72
2021/10/31 00:03:56;;;;;;;18.80;13.73;;;;;;;9.48;73.75;100266.16;5002420;28;20200;-71
2021/10/31 00:06:22;;;;;;;18.53;14.00;;;;;;;9.56;73.20;100267.69;5003342;28;20203;-72
2021/10/31 00:08:49;;;;;;;18.43;14.00;;;;;;;9.51;73.28;100274.78;5005629;28;20214;-70
2021/10/31 00:11:16;;;;;;;20.53;13.77;;;;;;;9.51;73.55;100273.00;5003618;28;20228;-71
2021/10/31 00:13:44;;;;;;;18.70;14.53;;;;;;;9.55;73.49;100285.06;5004029;28;20299;-72
2021/10/31 00:16:10;;;;;;;18.73;13.53;;;;;;;9.48;73.68;100292.19;5004596;28;20294;-72
2021/10/31 00:18:37;;;;;;;19.10;14.03;;;;;;;9.49;73.77;100280.00;5005483;28;20676;-71
2021/10/31 00:21:03;;;;;;;20.97;14.67;;;;;;;9.50;74.00;100286.06;5003608;28;20737;-71
2021/10/31 00:23:30;;;;;;;22.20;14.37;;;;;;;9.43;74.15;100285.41;5004345;28;20220;-71
2021/10/31 00:25:56;;;;;;;19.10;14.50;;;;;;;9.44;73.83;100294.91;4998565;28;20229;-71
2021/10/31 00:28:24;;;;;;;20.67;14.77;;;;;;;9.39;74.35;100296.75;5004387;28;20242;-71
2021/10/31 00:30:52;;;;;;;21.37;14.57;;;;;;;9.42;73.95;100307.94;5004814;28;20565;-71
2021/10/31 00:33:19;;;;;;;23.27;15.47;;;;;;;9.42;74.25;100307.09;5016893;28;20215;-71
2021/10/31 00:35:47;;;;;;;19.13;14.30;;;;;;;9.39;74.43;100307.16;5006962;28;20220;-70
2021/10/31 00:38:13;;;;;;;20.87;15.10;;;;;;;9.33;74.32;100315.16;5002727;28;20211;-71
2021/10/31 00:40:41;;;;;;;24.63;15.60;;;;;;;9.29;74.86;100303.97;5002932;28;20237;-72
2021/10/31 00:43:07;;;;;;;21.03;14.37;;;;;;;9.32;74.79;100301.25;5002053;28;20246;-71
2021/10/31 00:45:34;;;;;;;19.17;14.17;;;;;;;9.31;74.87;100301.34;4997736;28;20244;-72
2021/10/31 00:48:02;;;;;;;22.10;15.60;;;;;;;9.26;74.92;100298.84;5016822;28;20654;-71
2021/10/31 00:50:28;;;;;;;21.33;15.70;;;;;;;9.21;74.90;100300.69;5005271;28;20216;-70
2021/10/31 00:52:55;;;;;;;20.80;14.40;;;;;;;9.19;74.85;100303.34;4999928;28;20721;-71
2021/10/31 00:55:22;;;;;;;22.60;15.00;;;;;;;9.14;75.03;100304.34;5001988;28;20680;-72
2021/10/31 00:57:49;;;;;;;24.47;15.80;;;;;;;9.10;75.42;100304.44;5000110;28;20244;-70
2021/10/31 01:00:16;;;;;;;23.20;15.83;;;;;;;9.06;75.97;100302.81;5000059;28;20215;-71
2021/10/31 01:02:42;;;;;;;21.07;15.40;;;;;;;9.08;75.70;100307.97;4998467;28;20929;-71
2021/10/31 01:05:13;;;;;;;23.27;16.50;;;;;;;9.09;75.64;100309.66;5000806;28;20210;-72
2021/10/31 01:07:53;;;;;;;23.30;15.77;;;;;;;9.04;75.89;100298.50;5002989;28;20298;-72
2021/10/31 01:10:25;;;;;;;23.37;16.63;;;;;;;9.04;75.90;100308.91;4999615;28;20207;-72
2021/10/31 01:13:08;;;;;;;21.43;14.97;;;;;;;9.04;76.06;100311.53;5005422;28;20537;-71
2021/10/31 01:15:45;;;;;;;20.70;14.83;;;;;;;9.02;76.16;100308.09;5014110;28;20684;-70
2021/10/31 01:21:47;;;;;;;21.80;15.93;;;;;;;8.99;76.45;100297.78;4996911;28;20634;-72
2021/10/31 01:24:38;;;;;;;21.63;16.43;;;;;;;8.97;77.04;100302.16;5002308;28;20214;-71
2021/10/31 01:27:15;;;;;;;24.07;16.33;;;;;;;8.88;77.05;100301.53;5003213;28;20217;-71
2021/10/31 01:29:55;;;;;;;24.20;16.47;;;;;;;8.90;77.16;100296.28;5003326;28;20262;-71
2021/10/31 01:32:29;;;;;;;23.67;16.03;;;;;;;8.87;77.13;100301.56;5002663;28;20231;-71
2021/10/31 01:35:04;;;;;;;22.30;15.73;;;;;;;8.87;77.17;100298.94;5000201;28;20259;-72
2021/10/31 01:37:41;;;;;;;26.20;16.30;;;;;;;8.83;77.42;100298.16;5002050;28;20227;-72
2021/10/31 01:40:13;;;;;;;21.13;15.17;;;;;;;8.83;77.99;100294.69;4997337;28;20203;-72
2021/10/31 01:42:45;;;;;;;26.57;17.27;;;;;;;8.85;77.85;100309.38;5000301;28;20701;-71
2021/10/31 01:45:16;;;;;;;22.60;16.43;;;;;;;8.80;78.05;100313.84;5003309;28;20201;-71
2021/10/31 01:47:47;;;;;;;23.13;16.73;;;;;;;8.77;78.54;100313.06;4998938;28;20265;-72
2021/10/31 01:50:21;;;;;;;22.63;16.07;;;;;;;8.74;78.54;100313.13;5000853;28;20287;-71
2021/10/31 01:52:51;;;;;;;22.70;16.50;;;;;;;8.74;79.06;100315.72;5000055;28;20226;-69
2021/10/31 01:55:22;;;;;;;25.20;16.40;;;;;;;8.75;78.79;100307.88;4997230;28;20219;-70
2021/10/31 01:57:55;;;;;;;24.10;16.73;;;;;;;8.77;78.95;100311.31;5005761;28;20718;-71
2021/10/31 02:00:21;;;;;;;22.87;16.73;;;;;;;8.76;79.21;100311.34;5001264;28;20212;-71
2021/10/31 02:02:48;;;;;;;23.27;16.43;;;;;;;8.77;79.35;100321.69;5002794;28;20235;-71
2021/10/31 02:05:17;;;;;;;24.47;16.40;;;;;;;8.76;79.13;100317.41;5003467;28;20296;-70
2021/10/31 02:07:46;;;;;;;23.80;17.67;;;;;;;8.73;78.99;100320.06;5000132;28;20367;-72
2021/10/31 02:10:16;;;;;;;27.40;17.30;;;;;;;8.72;79.59;100318.34;5001598;28;20218;-70
2021/10/31 02:12:45;;;;;;;22.93;16.90;;;;;;;8.69;80.20;100329.69;5003802;28;20231;-71
2021/10/31 02:15:15;;;;;;;26.40;17.47;;;;;;;8.69;79.97;100327.09;5001129;28;20204;-71
2021/10/31 02:17:41;;;;;;;25.10;16.93;;;;;;;8.66;79.90;100326.31;5001484;28;20220;-71
2021/10/31 02:20:10;;;;;;;24.07;17.33;;;;;;;8.63;80.42;100334.16;4999886;28;20197;-72
2021/10/31 02:22:37;;;;;;;25.03;17.67;;;;;;;8.62;80.33;100327.25;5000255;28;20237;-72
2021/10/31 02:25:05;;;;;;;24.30;18.10;;;;;;;8.59;80.79;100330.78;5006661;28;20208;-71
2021/10/31 02:27:34;;;;;;;24.17;17.47;;;;;;;8.59;80.74;100322.13;5000169;28;20218;-72
2021/10/31 02:30:03;;;;;;;27.70;18.23;;;;;;;8.59;81.05;100325.59;5002750;28;20216;-71
2021/10/31 02:32:32;;;;;;;25.83;17.63;;;;;;;8.56;80.77;100327.41;5001282;28;20229;-70
2021/10/31 02:34:59;;;;;;;25.53;17.47;;;;;;;8.51;80.91;100330.09;4999371;28;20254;-71
2021/10/31 02:37:27;;;;;;;25.47;17.80;;;;;;;8.47;81.30;100329.31;5000991;28;20202;-71
2021/10/31 02:39:54;;;;;;;24.23;16.37;;;;;;;8.45;81.41;100335.44;5000668;28;20206;-72
2021/10/31 02:42:22;;;;;;;27.57;18.10;;;;;;;8.41;81.29;100331.16;5000780;28;20218;-70
2021/10/31 02:44:49;;;;;;;24.20;17.10;;;;;;;8.36;81.94;100326.06;5002397;28;20284;-71
2021/10/31 02:47:23;;;;;;;25.87;17.90;;;;;;;8.31;81.94;100327.91;5000400;28;20404;-71
2021/10/31 02:49:50;;;;;;;27.00;17.90;;;;;;;8.27;82.29;100318.47;5003976;28;20634;-72
2021/10/31 02:52:21;;;;;;;23.53;17.73;;;;;;;8.26;82.56;100321.94;5009105;28;20214;-71
2021/10/31 02:54:59;;;;;;;25.77;18.17;;;;;;;8.22;82.33;100326.34;5004808;28;20210;-71
2021/10/31 02:57:32;;;;;;;25.90;18.47;;;;;;;8.22;83.13;100328.09;5002803;28;20625;-70
2021/10/31 03:00:04;;;;;;;27.23;18.97;;;;;;;8.20;82.98;100333.34;5002295;28;20205;-72
2021/10/31 03:02:31;;;;;;;25.13;17.57;;;;;;;8.17;83.04;100340.34;5006676;28;20590;-71
2021/10/31 03:04:59;;;;;;;26.10;18.37;;;;;;;8.18;83.34;100347.22;5002501;28;20212;-71
2021/10/31 03:07:25;;;;;;;28.30;18.37;;;;;;;8.19;83.42;100339.41;5005833;28;20204;-71
2021/10/31 03:09:51;;;;;;;24.40;17.73;;;;;;;8.23;83.41;100342.78;5008328;28;20209;-71
2021/10/31 03:12:19;;;;;;;28.87;18.47;;;;;;;8.22;83.46;100341.94;5005567;28;20222;-71
2021/10/31 03:14:48;;;;;;;30.67;19.53;;;;;;;8.23;83.43;100345.38;5002381;28;20217;-71
2021/10/31 03:17:14;;;;;;;27.67;18.57;;;;;;;8.22;83.67;100346.28;5004887;28;20418;-70
2021/10/31 03:19:42;;;;;;;26.33;18.90;;;;;;;8.17;84.32;100348.97;5004430;28;20339;-70
2021/10/31 03:22:08;;;;;;;27.93;19.30;;;;;;;8.13;84.15;100348.19;5003796;28;20279;-69
2021/10/31 03:24:36;;;;;;;25.33;19.03;;;;;;;8.11;84.33;100359.50;5007856;28;20307;-71
2021/10/31 03:27:03;;;;;;;27.47;19.37;;;;;;;8.06;84.86;100353.53;5004210;28;20217;-70
2021/10/31 03:29:29;;;;;;;25.13;18.07;;;;;;;8.05;84.96;100352.66;5026133;28;20587;-69
2021/10/31 03:31:57;;;;;;;26.50;19.17;;;;;;;8.04;85.05;100361.34;5002780;28;20232;-71
2021/10/31 03:34:23;;;;;;;26.17;19.37;;;;;;;8.00;85.48;100353.66;5004860;28;20198;-70
2021/10/31 03:36:50;;;;;;;24.40;18.50;;;;;;;7.94;85.50;100350.28;5003024;28;20678;-71
2021/10/31 03:39:18;;;;;;;26.67;18.57;;;;;;;7.93;85.49;100351.19;5008379;28;20667;-70
2021/10/31 03:41:46;;;;;;;26.53;19.27;;;;;;;7.93;85.70;100348.59;5005404;28;20660;-71
2021/10/31 03:44:14;;;;;;;34.33;20.87;;;;;;;8.00;85.69;100348.44;5002387;28;20448;-70
2021/10/31 03:46:41;;;;;;;30.07;20.20;;;;;;;8.10;85.50;100343.03;5004309;28;20277;-71
2021/10/31 03:49:09;;;;;;;27.37;20.30;;;;;;;8.15;85.27;100342.97;5005413;28;20213;-71
2021/10/31 03:51:35;;;;;;;29.57;20.23;;;;;;;8.17;85.15;100337.75;5003769;28;20229;-71
2021/10/31 03:54:02;;;;;;;30.47;19.93;;;;;;;8.24;85.04;100352.31;5004421;28;20281;-70
2021/10/31 03:56:29;;;;;;;27.23;19.70;;;;;;;8.29;84.72;100342.69;5000986;28;20201;-69
2021/10/31 03:58:55;;;;;;;26.73;19.13;;;;;;;8.38;84.29;100342.47;5003033;28;20205;-71
2021/10/31 04:01:22;;;;;;;25.03;18.73;;;;;;;8.41;84.02;100360.59;5009433;28;20225;-71
2021/10/31 04:03:49;;;;;;;28.30;19.93;;;;;;;8.45;83.54;100364.88;5002428;28;20741;-71
2021/10/31 04:06:17;;;;;;;27.23;19.57;;;;;;;8.42;83.86;100369.25;5001671;28;20201;-71
2021/10/31 04:08:44;;;;;;;27.67;20.27;;;;;;;8.46;84.23;100371.78;5000810;28;20210;-71
2021/10/31 04:11:10;;;;;;;32.27;20.60;;;;;;;8.50;84.00;100376.00;5009427;28;21125;-70
2021/10/31 04:13:37;;;;;;;28.67;20.27;;;;;;;8.50;83.33;100372.56;5002936;28;20209;-71
2021/10/31 04:16:04;;;;;;;27.10;18.97;;;;;;;8.55;83.52;100369.84;5004911;28;20210;-70
2021/10/31 04:18:31;;;;;;;28.20;20.67;;;;;;;8.60;82.82;100378.41;5004624;28;20673;-70
2021/10/31 04:20:57;;;;;;;30.47;20.40;;;;;;;8.63;82.80;100380.94;5003818;28;20214;-69
2021/10/31 04:23:27;;;;;;;29.03;19.73;;;;;;;8.60;82.75;100378.41;5001251;28;20246;-70
2021/10/31 04:25:54;;;;;;;27.10;19.20;;;;;;;8.57;83.15;100387.13;5002290;28;20203;-70
2021/10/31 04:28:20;;;;;;;31.50;20.27;;;;;;;8.56;83.09;100385.41;5005427;28;20202;-70
2021/10/31 04:30:47;;;;;;;27.30;19.53;;;;;;;8.54;82.79;100387.19;5003611;28;20225;-71
2021/10/31 04:33:13;;;;;;;28.33;20.47;;;;;;;8.49;83.27;100389.88;5001492;28;20230;-71
2021/10/31 04:35:39;;;;;;;32.97;21.13;;;;;;;8.45;83.12;100388.25;5000212;28;20694;-70
2021/10/31 04:38:11;;;;;;;27.80;19.47;;;;;;;8.41;83.46;100399.56;5006509;28;20204;-71
2021/10/31 04:40:40;;;;;;;28.40;19.80;;;;;;;8.37;83.82;100395.31;5003216;28;20265;-70
2021/10/31 04:43:11;;;;;;;28.83;19.63;;;;;;;8.30;83.78;100393.72;5003144;28;20561;-70
2021/10/31 04:45:38;;;;;;;26.33;18.90;;;;;;;8.24;83.78;100401.66;5020786;28;20215;-71
2021/10/31 04:48:05;;;;;;;25.70;18.50;;;;;;;8.20;84.06;100394.81;5002859;28;20430;-71
2021/10/31 04:50:32;;;;;;;27.80;18.40;;;;;;;8.16;83.96;100401.78;4996904;28;20214;-70
2021/10/31 04:52:58;;;;;;;28.97;19.43;;;;;;;8.12;84.27;100394.94;5004985;28;20816;-70
2021/10/31 04:55:25;;;;;;;28.33;20.33;;;;;;;8.04;84.48;100397.72;5017902;28;20227;-71
2021/10/31 04:57:52;;;;;;;27.50;19.27;;;;;;;8.04;84.51;100396.81;5003182;28;20213;-70
2021/10/31 05:00:19;;;;;;;31.50;20.13;;;;;;;7.99;85.14;100394.34;5002451;28;20203;-71
2021/10/31 05:02:45;;;;;;;29.13;19.57;;;;;;;7.95;84.82;100384.91;4998065;28;20240;-71
2021/10/31 05:05:11;;;;;;;27.90;20.07;;;;;;;7.91;85.27;100380.63;5002222;28;20217;-71
2021/10/31 05:07:38;;;;;;;28.57;19.80;;;;;;;7.86;85.32;100380.75;5003052;28;20220;-70
2021/10/31 05:10:05;;;;;;;31.07;20.87;;;;;;;7.83;85.53;100382.50;4998019;28;20209;-71
2021/10/31 05:12:32;;;;;;;27.27;20.73;;;;;;;7.78;85.81;100388.66;4994854;28;20713;-69
2021/10/31 05:15:00;;;;;;;26.23;19.27;;;;;;;7.75;85.72;100391.31;5003522;28;20316;-70
2021/10/31 05:17:26;;;;;;;28.83;19.33;;;;;;;7.72;86.57;100385.31;5004103;28;20204;-70
2021/10/31 05:19:53;;;;;;;29.63;20.30;;;;;;;7.71;86.32;100396.59;5001789;28;20217;-70
2021/10/31 05:22:19;;;;;;;28.40;19.47;;;;;;;7.65;86.62;100388.91;5000126;28;20597;-69
2021/10/31 05:24:45;;;;;;;28.67;21.10;;;;;;;7.60;86.63;100386.41;5001677;28;20216;-70
2021/10/31 05:27:12;;;;;;;27.47;19.10;;;;;;;7.58;86.83;100395.94;5004937;28;20854;-70
2021/10/31 05:29:38;;;;;;;29.00;20.43;;;;;;;7.54;87.02;100389.94;5000283;28;20205;-71
2021/10/31 05:32:07;;;;;;;29.30;20.40;;;;;;;7.50;86.90;100385.69;4999163;28;20790;-70
2021/10/31 05:34:33;;;;;;;25.73;18.97;;;;;;;7.50;87.29;100388.28;5000085;28;20221;-69
2021/10/31 05:37:00;;;;;;;26.80;20.17;;;;;;;7.49;87.36;100384.00;5003214;28;20336;-71
2021/10/31 05:39:26;;;;;;;29.57;20.30;;;;;;;7.49;87.34;100380.53;5002957;28;20240;-71
2021/10/31 05:41:53;;;;;;;28.47;19.67;;;;;;;7.51;87.66;100387.44;5001341;28;20227;-71
2021/10/31 05:44:19;;;;;;;26.87;19.40;;;;;;;7.54;87.43;100389.94;4997961;28;20660;-69
2021/10/31 05:46:47;;;;;;;28.20;20.27;;;;;;;7.51;87.38;100392.63;5006574;28;20204;-70
2021/10/31 05:49:15;;;;;;;26.90;20.03;;;;;;;7.55;87.56;100386.47;5000175;28;20211;-70
2021/10/31 05:51:41;;;;;;;26.57;19.37;;;;;;;7.54;87.75;100399.47;5000707;28;20241;-70
2021/10/31 05:54:08;;;;;;;31.40;19.63;;;;;;;7.53;87.75;100397.78;5002555;28;20211;-71
2021/10/31 05:56:35;;;;;;;31.60;20.33;;;;;;;7.54;87.44;100404.66;4999852;28;20209;-70
2021/10/31 05:59:01;;;;;;;28.10;19.93;;;;;;;7.55;87.86;100396.84;4998010;28;20212;-71
2021/10/31 06:01:28;;;;;;;28.70;19.97;;;;;;;7.56;87.48;100400.31;4999455;28;20802;-71
2021/10/31 06:03:55;;;;;;;29.47;20.63;;;;;;;7.54;87.80;100399.47;5001699;28;20327;-69
2021/10/31 06:06:25;;;;;;;28.73;19.33;;;;;;;7.55;87.77;100404.63;5000493;28;20843;-71
2021/10/31 06:08:52;;;;;;;32.53;20.57;;;;;;;7.54;87.90;100402.06;5002504;28;20207;-71
2021/10/31 06:11:18;;;;;;;27.73;19.90;;;;;;;7.59;87.68;100395.06;5000160;28;20316;-71
2021/10/31 06:13:46;;;;;;;27.87;20.27;;;;;;;7.61;87.84;100393.28;5004345;28;20205;-69
2021/10/31 06:16:12;;;;;;;28.37;20.53;;;;;;;7.61;87.37;100393.28;5000544;28;20846;-71
2021/10/31 06:18:41;;;;;;;29.43;20.73;;;;;;;7.64;87.38;100397.59;5002283;28;20232;-71
2021/10/31 06:21:07;;;;;;;29.67;20.90;;;;;;;7.66;87.76;100407.03;4997745;28;20226;-71
2021/10/31 06:23:35;;;;;;;28.97;20.37;;;;;;;7.70;87.81;100403.50;4997496;28;20229;-70
2021/10/31 06:26:03;;;;;;;33.10;21.27;;;;;;;7.73;87.92;100400.00;4999605;28;20205;-71
2021/10/31 06:28:29;;;;;;;29.63;20.80;;;;;;;7.78;87.55;100406.81;4999463;28;20217;-71
2021/10/31 06:30:56;;;;;;;29.07;19.90;;;;;;;7.81;87.50;100415.44;5001548;28;20816;-71
2021/10/31 06:33:22;;;;;;;30.97;20.07;;;;;;;7.86;87.70;100418.81;5004070;28;20304;-69
2021/10/31 06:35:48;;;;;;;27.57;20.70;;;;;;;7.91;87.40;100423.03;4999879;28;20679;-71
2021/10/31 06:38:15;;;;;;;31.20;21.47;;;;;;;8.04;86.57;100423.69;4999378;28;21325;-70
2021/10/31 06:40:43;;;;;;;29.83;19.97;;;;;;;8.18;86.01;100426.00;5000232;28;20210;-70
2021/10/31 06:43:10;;;;;;;29.17;20.63;;;;;;;8.31;85.27;100426.63;5013188;28;20241;-70
2021/10/31 06:45:37;;;;;;;32.67;20.97;;;;;;;8.36;85.20;100423.94;5001633;28;20208;-70
2021/10/31 06:48:05;;;;;;;26.57;19.73;;;;;;;8.39;85.00;100429.03;5000275;28;20776;-71
2021/10/31 06:50:31;;;;;;;28.10;20.07;;;;;;;8.46;84.88;100430.66;5002889;28;20211;-70
2021/10/31 06:52:57;;;;;;;29.47;21.33;;;;;;;8.50;84.42;100433.19;4998569;28;20228;-71
2021/10/31 06:55:24;;;;;;;30.30;20.30;;;;;;;8.58;84.05;100429.56;5001845;28;20215;-71
2021/10/31 06:57:52;;;;;;;30.17;20.87;;;;;;;8.60;83.90;100436.47;4999696;28;20678;-70
2021/10/31 07:00:19;;;;;;;27.73;20.27;;;;;;;8.66;84.04;100435.47;4998176;28;20205;-71
2021/10/31 07:02:46;;;;;;;29.73;21.20;;;;;;;8.74;83.38;100441.34;4994388;28;20229;-71
2021/10/31 07:05:12;;;;;;;26.83;19.03;;;;;;;8.81;82.96;100437.75;5002466;28;20303;-70
2021/10/31 07:07:39;;;;;;;27.13;20.23;;;;;;;8.86;82.94;100433.28;5000598;28;20202;-70
2021/10/31 07:10:06;;;;;;;29.23;20.70;;;;;;;8.91;82.97;100433.19;4999028;28;20557;-71
2021/10/31 07:12:33;;;;;;;25.33;19.97;;;;;;;8.98;82.61;100437.34;4998237;28;20235;-71
2021/10/31 07:15:01;;;;;;;28.17;19.13;;;;;;;9.09;82.90;100430.19;4995068;28;20308;-70
2021/10/31 07:17:27;;;;;;;26.90;19.47;;;;;;;9.26;81.75;100436.72;4997815;28;20208;-71
2021/10/31 07:19:53;;;;;;;24.53;18.40;;;;;;;9.41;81.54;100446.78;4996096;28;20219;-70
2021/10/31 07:22:20;;;;;;;28.60;20.17;;;;;;;9.53;80.92;100445.59;5001232;28;20280;-70
2021/10/31 07:24:51;;;;;;;28.40;20.57;;;;;;;9.68;80.45;100446.13;4998926;28;20314;-70
2021/10/31 07:27:18;;;;;;;25.23;19.07;;;;;;;9.79;80.02;100442.34;4994993;28;20219;-70
2021/10/31 07:29:45;;;;;;;26.80;18.70;;;;;;;9.89;79.76;100445.56;4997832;28;20236;-71
2021/10/31 07:32:13;;;;;;;25.60;18.20;;;;;;;9.98;79.26;100447.09;4996189;28;20231;-70
2021/10/31 07:34:40;;;;;;;29.43;19.00;;;;;;;10.04;79.07;100450.38;5002032;28;20193;-71
2021/10/31 07:37:06;;;;;;;26.40;18.27;;;;;;;10.08;79.00;100461.56;4999607;28;20212;-71
2021/10/31 07:39:35;;;;;;;28.07;18.90;;;;;;;10.12;78.95;100462.34;4999525;28;20685;-71
2021/10/31 07:42:01;;;;;;;26.23;18.73;;;;;;;10.12;79.30;100465.78;4999492;28;20280;-71
2021/10/31 07:44:28;;;;;;;23.77;18.33;;;;;;;10.13;78.44;100459.69;5003758;28;20435;-70
2021/10/31 07:46:54;;;;;;;26.50;19.23;;;;;;;10.14;78.67;100458.78;4999718;28;20625;-71
2021/10/31 07:49:22;;;;;;;25.67;18.73;;;;;;;10.15;78.47;100462.25;5004478;28;20198;-71
2021/10/31 07:51:49;;;;;;;26.37;18.53;;;;;;;10.15;78.11;100459.63;5001298;28;20243;-71
2021/10/31 07:54:17;;;;;;;27.80;19.40;;;;;;;10.18;77.56;100452.63;5002251;28;20848;-71
2021/10/31 07:56:44;;;;;;;25.63;17.37;;;;;;;10.21;78.18;100449.06;4999839;28;20578;-71
2021/10/31 07:59:10;;;;;;;25.67;18.50;;;;;;;10.24;78.00;100451.59;4998542;28;20307;-71
2021/10/31 08:01:37;;;;;;;26.03;18.00;;;;;;;10.30;78.33;100446.19;4999330;28;20822;-69
2021/10/31 08:04:04;;;;;;;24.47;18.37;;;;;;;10.39;78.10;100453.78;4999454;28;20228;-71
2021/10/31 08:06:32;;;;;;;24.53;18.20;;;;;;;10.51;77.66;100446.53;4997555;28;20213;-71
2021/10/31 08:08:58;;;;;;;23.43;17.33;;;;;;;10.62;77.43;100452.28;5002010;28;20216;-71
2021/10/31 08:11:24;;;;;;;26.33;18.60;;;;;;;10.75;76.33;100444.97;5003468;28;20661;-71
2021/10/31 08:13:51;;;;;;;49.47;31.07;;;;;;;10.82;77.11;100443.88;5001830;28;20229;-71
2021/10/31 08:16:20;;;;;;;50.43;34.93;;;;;;;10.93;75.51;100449.63;5003551;28;20612;-71
2021/10/31 08:18:46;;;;;;;26.83;18.77;;;;;;;11.04;75.19;100448.44;5001774;28;20218;-71
2021/10/31 08:21:13;;;;;;;23.97;17.33;;;;;;;11.12;74.89;100442.09;4998963;28;20229;-71
2021/10/31 08:23:41;;;;;;;24.63;19.00;;;;;;;11.21;74.27;100445.31;5000641;28;20619;-70
2021/10/31 08:26:08;;;;;;;31.73;22.40;;;;;;;11.27;74.28;100439.88;5003869;28;20272;-71
2021/10/31 08:28:38;;;;;;;28.53;19.97;;;;;;;11.33;73.55;100440.56;5004492;28;20218;-71
2021/10/31 08:31:05;;;;;;;28.37;19.20;;;;;;;11.35;74.25;100446.56;4992513;28;20225;-71
2021/10/31 08:33:33;;;;;;;29.40;19.97;;;;;;;11.42;74.14;100449.00;4999654;28;20210;-71
2021/10/31 08:36:01;;;;;;;24.03;17.10;;;;;;;11.44;72.89;100448.03;4998816;28;20305;-71
2021/10/31 08:38:29;;;;;;;23.70;16.63;;;;;;;11.47;73.25;100453.16;4997055;28;21472;-71
2021/10/31 08:40:58;;;;;;;25.47;17.70;;;;;;;11.47;73.67;100450.56;4999969;28;20207;-71
2021/10/31 08:43:25;;;;;;;29.17;17.60;;;;;;;11.48;73.83;100449.63;4996979;28;20221;-70
2021/10/31 08:45:52;;;;;;;23.60;17.03;;;;;;;11.53;73.38;100444.25;5005738;28;20225;-72
2021/10/31 08:48:19;;;;;;;23.73;17.27;;;;;;;11.52;73.13;100440.81;5005734;28;20212;-71
2021/10/31 08:50:46;;;;;;;24.67;17.80;;;;;;;11.55;73.59;100440.69;5004831;28;20218;-70
2021/10/31 08:53:14;;;;;;;22.10;16.00;;;;;;;11.58;73.77;100446.75;5011919;28;20317;-71
2021/10/31 08:55:41;;;;;;;27.73;16.87;;;;;;;11.59;73.53;100449.31;5006922;28;20300;-71
2021/10/31 08:58:10;;;;;;;27.57;17.73;;;;;;;11.61;73.80;100439.66;5007485;28;20208;-71
2021/10/31 09:00:38;;;;;;;24.83;16.83;;;;;;;11.67;73.09;100439.44;5003285;28;20220;-72
2021/10/31 09:03:05;;;;;;;24.93;17.10;;;;;;;11.73;73.60;100444.47;5008027;28;20312;-72
2021/10/31 09:05:32;;;;;;;22.07;15.93;;;;;;;11.75;73.16;100437.44;5003520;28;20238;-71
2021/10/31 09:07:58;;;;;;;23.93;16.73;;;;;;;11.80;73.05;100447.69;4994388;28;20199;-70
2021/10/31 09:10:25;;;;;;;23.67;16.73;;;;;;;11.84;73.46;100441.47;5001729;28;20207;-71
2021/10/31 09:12:51;;;;;;;20.33;16.07;;;;;;;11.87;73.35;100437.91;5003418;28;20236;-70
2021/10/31 09:15:19;;;;;;;23.87;17.37;;;;;;;11.91;73.53;100440.41;5004244;28;20284;-70
2021/10/31 09:17:45;;;;;;;23.17;17.13;;;;;;;11.98;72.34;100437.56;4996258;28;20308;-71
2021/10/31 09:20:12;;;;;;;21.87;15.63;;;;;;;12.02;72.41;100423.50;4998852;28;20208;-70
2021/10/31 09:22:39;;;;;;;27.40;16.63;;;;;;;12.08;72.49;100431.97;5000679;28;20224;-70
2021/10/31 09:25:06;;;;;;;48.83;20.53;;;;;;;12.10;72.37;100435.38;5001099;28;20225;-71
2021/10/31 09:27:33;;;;;;;22.67;16.13;;;;;;;12.14;72.18;100420.44;5000514;28;20207;-69
2021/10/31 09:29:59;;;;;;;22.20;16.03;;;;;;;12.23;71.64;100417.50;5003061;28;20207;-71
2021/10/31 09:32:47;;;;;;;21.97;16.00;;;;;;;12.29;71.66;100412.06;5000847;28;20231;-72
2021/10/31 09:35:13;;;;;;;22.27;16.10;;;;;;;12.38;70.68;100405.59;5007873;28;20197;-71
2021/10/31 09:37:40;;;;;;;21.60;15.83;;;;;;;12.45;70.98;100401.88;4997528;28;20212;-70
2021/10/31 09:40:07;;;;;;;20.20;15.07;;;;;;;12.53;70.62;100401.59;4999192;28;20218;-70
2021/10/31 09:42:34;;;;;;;23.37;15.63;;;;;;;12.65;70.35;100395.03;4995566;28;20227;-70
2021/10/31 09:45:01;;;;;;;24.17;16.03;;;;;;;12.70;71.13;100403.56;4998564;28;20234;-71
2021/10/31 09:47:27;;;;;;;40.13;18.30;;;;;;;12.78;70.58;100400.66;4996639;28;20230;-71
2021/10/31 09:49:56;;;;;;;20.90;15.33;;;;;;;12.82;69.39;100407.44;4997496;28;20689;-69
2021/10/31 09:52:25;;;;;;;19.57;14.57;;;;;;;12.83;70.56;100406.56;4997268;28;20218;-71
2021/10/31 09:54:52;;;;;;;20.90;14.97;;;;;;;12.85;70.06;100402.94;5001019;28;20210;-71
2021/10/31 09:57:19;;;;;;;20.10;15.33;;;;;;;12.81;70.44;100396.16;5000371;28;20204;-71
2021/10/31 09:59:51;;;;;;;22.00;15.03;;;;;;;12.83;70.00;100391.69;4995161;28;20214;-71
2021/10/31 10:02:36;;;;;;;24.97;15.73;;;;;;;12.83;71.04;100383.00;5001196;28;20286;-71
2021/10/31 10:05:04;;;;;;;24.57;15.03;;;;;;;12.81;70.62;100383.06;4998020;28;20247;-71
2021/10/31 10:07:31;;;;;;;22.13;15.67;;;;;;;12.76;72.52;100371.94;4996515;28;20211;-72
2021/10/31 10:09:58;;;;;;;19.90;15.23;;;;;;;12.78;70.61;100377.94;5006116;28;20212;-69
2021/10/31 10:12:28;;;;;;;23.73;15.97;;;;;;;12.79;70.28;100376.19;4997506;28;20233;-71
2021/10/31 10:15:00;;;;;;;21.50;15.47;;;;;;;12.79;70.19;100374.44;5001433;28;20331;-71
2021/10/31 10:17:27;;;;;;;22.23;15.73;;;;;;;12.82;69.90;100373.44;4999595;28;20231;-71
2021/10/31 10:19:58;;;;;;;29.30;16.53;;;;;;;12.82;70.48;100370.81;4998966;28;20205;-70
2021/10/31 10:22:27;;;;;;;24.63;16.13;;;;;;;12.85;69.89;100361.09;5000285;28;20228;-71
2021/10/31 10:24:56;;;;;;;26.17;17.03;;;;;;;12.90;69.63;100374.00;4993160;28;20230;-69
2021/10/31 10:27:26;;;;;;;25.50;15.17;;;;;;;12.92;69.46;100372.16;4991837;28;20664;-71
2021/10/31 10:29:52;;;;;;;25.17;16.23;;;;;;;12.88;69.20;100366.22;4992448;28;20564;-69
2021/10/31 10:32:21;;;;;;;22.20;15.23;;;;;;;12.88;68.86;100365.38;4991845;28;20232;-71
2021/10/31 10:34:51;;;;;;;22.00;16.03;;;;;;;12.87;69.37;100361.03;4994029;28;20201;-71
2021/10/31 10:37:21;;;;;;;21.17;15.80;;;;;;;12.85;69.63;100362.88;4988935;28;20209;-70
2021/10/31 10:40:00;;;;;;;26.77;16.83;;;;;;;12.85;69.63;100358.47;4993477;28;20208;-71
2021/10/31 10:42:29;;;;;;;22.23;15.13;;;;;;;12.88;70.17;100360.13;5000052;28;20227;-71
2021/10/31 10:44:57;;;;;;;23.17;15.40;;;;;;;12.93;69.85;100363.41;4997177;28;20787;-71
2021/10/31 10:47:24;;;;;;;20.20;15.47;;;;;;;12.96;69.41;100368.50;4992346;28;20203;-71
2021/10/31 10:49:52;;;;;;;23.10;14.60;;;;;;;12.99;69.53;100363.16;4992366;28;20211;-71
2021/10/31 10:52:22;;;;;;;21.53;14.23;;;;;;;12.99;69.53;100357.94;4989871;28;20265;-71
2021/10/31 10:55:07;;;;;;;21.43;14.63;;;;;;;13.02;69.75;100357.81;4992770;28;20215;-70
2021/10/31 10:57:35;;;;;;;19.57;14.87;;;;;;;13.05;69.53;100352.47;4990829;28;20247;-69
2021/10/31 11:00:07;;;;;;;21.27;15.03;;;;;;;13.11;69.56;100351.34;5000216;28;20720;-70
2021/10/31 11:02:34;;;;;;;19.37;15.00;;;;;;;13.17;68.06;100348.47;4993338;28;20594;-70
2021/10/31 11:05:03;;;;;;;18.97;14.77;;;;;;;13.27;68.91;100347.16;5003466;28;20251;-70
2021/10/31 11:07:32;;;;;;;18.17;13.60;;;;;;;13.32;69.31;100347.03;5002331;28;20216;-70
2021/10/31 11:10:01;;;;;;;18.07;13.67;;;;;;;13.35;68.86;100341.66;5003141;28;20241;-70
2021/10/31 11:12:32;;;;;;;19.37;14.00;;;;;;;13.33;67.96;100330.41;5001304;28;20228;-71
2021/10/31 11:15:01;;;;;;;17.80;14.10;;;;;;;13.36;68.91;100324.19;5007295;28;20204;-70
2021/10/31 11:17:28;;;;;;;19.50;14.10;;;;;;;13.43;69.02;100315.13;5000260;28;20208;-69
2021/10/31 11:19:55;;;;;;;18.70;13.97;;;;;;;13.43;69.14;100315.97;5002463;28;20214;-70
2021/10/31 11:22:25;;;;;;;18.77;13.30;;;;;;;13.50;68.94;100311.34;4996570;28;20228;-70